• Join FlightAware (Why Join?)
  • Login
  • US Flag 
05:56AM EDT


 

Airport Tracker/Info


-or-


 

Live Flight TrackerFlight Track Log ✈ KEE205 ✈ 26-Jul-2013 ✈ CYBT - CYWG

Flight Track Log - Related Links

Times and Time Zones

All times are in EDT time to prevent confusion due to time zone crossing. See the KEE205 flight status page for this flight to view local times or setup timezone preferences in your user account.

Time Position Orientation Groundspeed Altitude Reporting Facility
EDT Latitude Longitude Course Direction KTS MPH feet Rate Location/Type
12:51PM 57.2305 -101.2365 161° South  Level Estimated
12:51PM 57.4667 -101.4000 152° Southeast 170 196 18,300  Level Winnipeg Center
12:52PM 57.1652 -101.1896 159° South  Level FlightAware Approximate
12:52PM 57.4167 -101.3667 160° South 180 207 19,500  Level Winnipeg Center
12:53PM 57.0992 -101.1464 161° South  Level Estimated
12:53PM 57.3667 -101.3333 160° South 180 207 20,800  Level Winnipeg Center
12:54PM 57.0330 -101.1043 161° South  Level FlightAware Approximate
12:54PM 57.3167 -101.3333 180° South 180 207 21,900  Level Winnipeg Center
12:55PM 56.9670 -101.0614 160° South  Level Estimated
12:55PM 57.2667 -101.3000 160° South 180 207 23,000  Level Winnipeg Center
12:56PM 56.9012 -101.0174 160° South  Level FlightAware Approximate
12:56PM 57.2333 -101.2500 141° Southeast 180 207 24,000  Level Winnipeg Center
12:57PM 57.1833 -101.2167 160° South 190 219 24,900 840 Climbing Winnipeg Center
12:58PM 57.1333 -101.1833 160° South 190 219 25,700 840 Climbing Winnipeg Center
12:59PM 57.0833 -101.1500 160° South 190 219 26,600 660 Climbing Winnipeg Center
01:00PM 57.0333 -101.1167 160° South 190 219 27,100 240 Climbing Winnipeg Center
01:01PM 56.9833 -101.0667 151° Southeast 220 253 27,100  Level Winnipeg Center
01:02PM 56.9167 -101.0333 165° South 230 265 27,100 -60 Level Winnipeg Center
01:03PM 56.8667 -101.0000 160° South 240 276 27,000 -60 Descending Winnipeg Center
01:04PM 56.7833 -100.9667 168° South 250 288 27,000  Level Winnipeg Center
01:05PM 56.7333 -100.9333 160° South 250 288 27,100  Climbing Winnipeg Center
01:06PM 56.6667 -100.8833 158° South 250 288 27,000  Descending Winnipeg Center
01:07PM 56.6000 -100.8500 165° South 250 288 27,100  Climbing Winnipeg Center
01:08PM 56.5167 -100.7833 156° South 250 288 27,000 -60 Descending Winnipeg Center
01:09PM 56.4667 -100.7500 160° South 250 288 27,000  Level Winnipeg Center
01:10PM 56.3833 -100.7167 168° South 250 288 27,000  Level Winnipeg Center
01:11PM 56.3333 -100.6667 151° Southeast 250 288 27,000  Level Winnipeg Center
01:12PM 56.2667 -100.6333 164° South 250 288 27,000  Level Winnipeg Center
01:13PM 56.2000 -100.6000 164° South 250 288 27,100  Climbing Winnipeg Center
01:14PM 56.1333 -100.5333 151° Southeast 250 288 27,000 -60 Descending Winnipeg Center
01:15PM 56.0500 -100.5000 167° South 250 288 27,000  Level Winnipeg Center
01:16PM 56.0000 -100.4667 160° South 250 288 27,000  Level Winnipeg Center
01:17PM 55.9167 -100.4333 167° South 250 288 27,000  Level Winnipeg Center
01:18PM 55.8667 -100.4000 159° South 250 288 27,000  Level Winnipeg Center
01:19PM 55.7833 -100.3500 161° South 250 288 27,000  Level Winnipeg Center
01:20PM 55.7333 -100.2833 143° Southeast 260 299 27,000  Level Winnipeg Center
01:21PM 55.6667 -100.2500 164° South 260 299 27,000  Level Winnipeg Center
01:22PM 55.6000 -100.2167 164° South 260 299 27,000  Level Winnipeg Center
01:23PM 55.5333 -100.1833 164° South 260 299 27,000  Level Winnipeg Center
01:24PM 55.4667 -100.1500 164° South 260 299 27,000  Level Winnipeg Center
01:25PM 55.3833 -100.0833 156° South 270 311 27,100  Climbing Winnipeg Center
01:26PM 55.3167 -100.0500 164° South 270 311 27,000 -60 Descending Winnipeg Center
01:27PM 55.2500 -100.0167 164° South 260 299 27,000  Level Winnipeg Center
01:28PM 55.1833 -99.9833 164° South 260 299 27,000  Level Winnipeg Center
01:29PM 55.1167 -99.9167 150° Southeast 260 299 27,000  Level Winnipeg Center
01:30PM 55.0500 -99.8833 164° South 260 299 27,000  Level Winnipeg Center
01:31PM 54.9833 -99.8500 164° South 260 299 27,000  Level Winnipeg Center
01:32PM 54.9000 -99.8167 167° South 260 299 27,000  Level Winnipeg Center
01:33PM 54.8333 -99.7833 164° South 260 299 27,000  Level Winnipeg Center
01:34PM 54.7667 -99.7167 150° Southeast 260 299 27,000  Level Winnipeg Center
01:35PM 54.7000 -99.6833 164° South 250 288 27,000  Level Winnipeg Center
01:36PM 54.6333 -99.6500 164° South 260 299 27,000  Level Winnipeg Center
01:37PM 54.5667 -99.6167 164° South 250 288 27,000  Level Winnipeg Center
01:38PM 54.5000 -99.5833 164° South 260 299 27,000  Level Winnipeg Center
01:39PM 54.4333 -99.5333 156° South 250 288 27,000  Level Winnipeg Center
01:40PM 54.3667 -99.5000 164° South 250 288 27,000  Level Winnipeg Center
01:41PM 54.2833 -99.4667 167° South 260 299 27,000  Level Winnipeg Center
01:42PM 54.2167 -99.4333 164° South 260 299 27,000  Level Winnipeg Center
01:43PM 54.1500 -99.4000 164° South 250 288 27,000  Level Winnipeg Center
01:44PM 54.0833 -99.3667 164° South 250 288 27,000  Level Winnipeg Center
01:45PM 54.0167 -99.3000 150° Southeast 250 288 27,000  Level Winnipeg Center
01:46PM 53.9500 -99.2667 164° South 260 299 27,000  Level Winnipeg Center
01:47PM 53.8833 -99.2333 164° South 240 276 27,000  Level Winnipeg Center
01:48PM 53.8333 -99.2000 159° South 250 288 27,000  Level Winnipeg Center
01:49PM 53.7833 -99.1667 158° South 250 288 27,000  Level Winnipeg Center
01:50PM 53.7000 -99.1333 167° South 250 288 27,000  Level Winnipeg Center
01:51PM 53.6333 -99.1167 172° South 250 288 27,000  Level Winnipeg Center
01:52PM 53.5667 -99.0500 149° Southeast 260 299 27,000  Level Winnipeg Center
01:53PM 53.5000 -99.0500 180° South 240 276 27,000  Level Winnipeg Center
01:54PM 53.4333 -98.9833 149° Southeast 270 311 27,000  Level Winnipeg Center
01:55PM 53.3667 -98.9500 163° South 250 288 27,000  Level Winnipeg Center
01:56PM 53.3000 -98.9167 163° South 240 276 27,000  Level Winnipeg Center
01:57PM 53.2333 -98.8667 156° South 260 299 27,000  Level Winnipeg Center
01:58PM 53.1667 -98.8333 163° South 260 299 27,000  Level Winnipeg Center
01:59PM 53.1000 -98.8000 163° South 250 288 27,000  Level Winnipeg Center
02:00PM 53.0333 -98.7667 163° South 250 288 27,000  Level Winnipeg Center
02:01PM 52.9667 -98.7500 171° South 260 299 27,000  Level Winnipeg Center
02:02PM 52.9000 -98.6833 149° Southeast 260 299 27,000  Level Winnipeg Center
02:03PM 52.8333 -98.6500 163° South 260 299 27,000  Level Winnipeg Center
02:04PM 52.7500 -98.6167 166° South 260 299 27,000  Level Winnipeg Center
02:05PM 52.6833 -98.6000 171° South 260 299 27,000  Level Winnipeg Center
02:06PM 52.6167 -98.5667 163° South 260 299 27,000  Level Winnipeg Center
02:07PM 52.5500 -98.5333 163° South 260 299 27,000  Level Winnipeg Center
02:08PM 52.4667 -98.5000 166° South 270 311 27,000  Level Winnipeg Center
02:09PM 52.4000 -98.4667 163° South 260 299 27,000  Level Winnipeg Center
02:10PM 52.3333 -98.4500 171° South 270 311 27,000  Level Winnipeg Center
02:11PM 52.2500 -98.4333 173° South 260 299 27,000  Level Winnipeg Center
02:12PM 52.1833 -98.4167 171° South 270 311 27,000  Level Winnipeg Center
02:13PM 52.1167 -98.3833 163° South 270 311 27,000  Level Winnipeg Center
02:14PM 52.0333 -98.3500 166° South 260 299 27,000  Level Winnipeg Center
02:15PM 51.9667 -98.3500 180° South 270 311 27,000  Level Winnipeg Center
02:16PM 51.9000 -98.3167 163° South 270 311 27,000  Level Winnipeg Center
02:17PM 51.8167 -98.2833 166° South 270 311 27,000  Level Winnipeg Center
02:18PM 51.7500 -98.2667 171° South 270 311 27,000  Level Winnipeg Center
02:19PM 51.6667 -98.2667 180° South 270 311 27,000  Level Winnipeg Center
02:20PM 51.6000 -98.2333 163° South 270 311 27,000  Level Winnipeg Center
02:21PM 51.5167 -98.2000 166° South 270 311 27,000  Level Winnipeg Center
02:22PM 51.4500 -98.1667 163° South 270 311 27,000  Level Winnipeg Center
02:23PM 51.3667 -98.1500 173° South 270 311 27,000  Level Winnipeg Center
02:24PM 51.3000 -98.1500 180° South 270 311 27,000  Level Winnipeg Center
02:25PM 51.2167 -98.1167 166° South 280 322 27,000 -600 Level Winnipeg Center
02:26PM 51.1500 -98.0833 163° South 290 334 25,800 -1,080 Descending Winnipeg Center
02:27PM 51.0500 -98.0500 168° South 310 357 24,900 -900 Descending Winnipeg Center
02:28PM 50.9667 -98.0333 173° South 310 357 24,000 -960 Descending Winnipeg Center
02:29PM 50.8833 -98.0000 166° South 310 357 23,000 -960 Descending Winnipeg Center
02:30PM 50.8000 -97.9667 166° South 310 357 22,100 -960 Descending Winnipeg Center
02:31PM 50.7167 -97.9667 180° South 310 357 21,100 -1,260 Descending Winnipeg Center
02:32PM 50.6333 -97.9333 166° South 310 357 19,600 -1,500 Descending Winnipeg Center
02:33PM 50.5500 -97.9167 173° South 310 357 18,200 -1,440 Descending Winnipeg Center
02:34PM 50.4667 -97.8833 166° South 300 345 16,800 -1,500 Descending Winnipeg Center
02:35PM 50.3833 -97.8500 166° South 300 345 15,200 -1,800 Descending Winnipeg Center
02:36PM 50.3000 -97.8333 173° South 290 334 13,200 -1,800 Descending Winnipeg Center
02:37PM 50.2333 -97.7833 154° Southeast 290 334 11,600 -1,740 Descending Winnipeg Center
02:38PM 50.1667 -97.7167 147° Southeast 280 322 9,800 -1,800 Descending Winnipeg Center
02:39PM 50.1000 -97.6667 154° Southeast 270 311 8,100 -1,800 Descending Winnipeg Center
02:40PM 50.0333 -97.6167 154° Southeast 260 299 6,300 -1,680 Descending Winnipeg Center
02:41PM 49.9833 -97.5667 147° Southeast 240 276 4,800 -1,200 Descending Winnipeg Center
02:42PM 49.9167 -97.5167 154° Southeast 230 265 4,000 -600 Descending Winnipeg Center
02:43PM 49.8667 -97.4667 147° Southeast 200 230 3,600 -360 Descending Winnipeg Center
02:44PM 49.8167 -97.4333 157° South 200 230 3,300 -300 Descending Winnipeg Center
02:45PM 49.8000 -97.3500 107° East 180 207 3,100 -300 Descending Winnipeg Center
02:46PM 49.8167 -97.3000 63° Northeast 150 173 2,700 -600 Descending Winnipeg Center
02:47PM 49.8333 -97.2500 63° Northeast 130 150 1,900 -720 Descending Winnipeg Center
02:48PM 49.8667 -97.2333 18° North 110 127 1,300 -600 Descending Winnipeg Center
02:49PM 49.8833 -97.2333 360° North 70 81 800 -540 Descending Winnipeg Center